Meadows Of Dan, VA (24120)

8:14 AM EDT on September 01, 2014 (GMT -0400)
Country Road Realty | Change Station
CLOSE
Current Station
Personal Weather Station
Location: Meadows Of Dan, VA
Elevation: 2910 ft
Nearby Weather Stations

Elev 2910 ft 36.73 °N, 80.44 °W | Updated 23 seconds ago

Mostly Cloudy
Mostly Cloudy
68.9 °F
Feels Like 68.9 °F
N
0.0
Wind Variable Wind from East
Gusts 0.0 mph

Today
High -- | Low -- °F
--% Chance of Precip.
Yesterday
High -- | Low -- °F
Precip. -- in
6:52 AM 7:49 PM
Waxing Crescent, 40% visible
Pressure 30.16 in
Visibility 4.0 miles
Clouds Scattered Clouds 9500 ft
Dew Point 56 °F
Humidity 64%
Rainfall 0.00 in
Snow Depth Not available.
UV 0 out of 12
Pollen 10.30 out of 12
Air Quality Not available.
Flu Activity Not available.
METAR KMWK 011155Z AUTO 00000KT 4SM BR SCT095 22/21 A3016 RMK AO2 70017 T02200207 10220 20210

More Conditions Fewer Conditions

Pressure 30.16 in
Visibility 4.0 miles
Clouds Scattered Clouds 9500 ft
Dew Point 56 °F
Humidity 64%
Rainfall 0.00 in
Snow Depth Not available.
UV 0 out of 12
Pollen 10.30 out of 12
Air Quality Not available.
Flu Activity Not available.
METAR KMWK 011155Z AUTO 00000KT 4SM BR SCT095 22/21 A3016 RMK AO2 70017 T02200207 10220 20210

More Conditions Fewer Conditions

10-Day Weather Forecast

Almanac

Astronomy

Sep. 01, 2014 Rise Set
Actual Time 6:52 AM EDT 7:49 PM EDT
Civil Twilight 6:26 AM EDT 8:16 PM EDT
Nautical Twilight 5:54 AM EDT 8:47 PM EDT
Astronomical Twilight 5:22 AM EDT 9:19 PM EDT
Moon 1:26 PM EDT No Moon Set
Length of Visible Light 13h 50m
Length of Day
12h 57m
Tomorrow will be 2m 15s shorter.
Waxing Crescent, 40% of the Moon is Illuminated
Today
Waxing Crescent
Sep 2
First Quarter
Sep 8
Full
Sep 15
Last Quarter
Sep 24
New

Today's Extremes

State Highs State Lows

Community

WunderPhotos

Upload Photos

1,749,195 photos uploaded!

Nearby

Snow Depth

Station Depth Elevation
No new snow has been reported.

Earthquake Activity

City Distance Mag. Time & Date
No recent earthquake activity has been reported nearby.
Minimum magnitude displayed is 2.5.

Coastal Water Temperatures

Place Temperature
No Stations Reporting

Nearby Weather Stations